sensor_id;sensor_type;location;lat;lon;timestamp;P1;durP1;ratioP1;P2;durP2;ratioP2
71368;SDS011;59175;53.214;5.728;2022-12-22T00:00:27;15.60;;;4.80;;
71368;SDS011;59175;53.214;5.728;2022-12-22T00:03:12;12.25;;;4.43;;
71368;SDS011;59175;53.214;5.728;2022-12-22T00:05:56;13.05;;;6.07;;
71368;SDS011;59175;53.214;5.728;2022-12-22T00:08:40;13.98;;;5.72;;
71368;SDS011;59175;53.214;5.728;2022-12-22T00:11:24;17.47;;;7.03;;
71368;SDS011;59175;53.214;5.728;2022-12-22T00:14:08;15.07;;;6.40;;
71368;SDS011;59175;53.214;5.728;2022-12-22T00:16:53;20.25;;;7.18;;
71368;SDS011;59175;53.214;5.728;2022-12-22T00:19:37;11.98;;;5.18;;
71368;SDS011;59175;53.214;5.728;2022-12-22T00:22:23;16.20;;;6.72;;
71368;SDS011;59175;53.214;5.728;2022-12-22T00:25:08;20.13;;;5.93;;
71368;SDS011;59175;53.214;5.728;2022-12-22T00:27:54;15.80;;;5.45;;
71368;SDS011;59175;53.214;5.728;2022-12-22T00:30:38;16.38;;;6.97;;
71368;SDS011;59175;53.214;5.728;2022-12-22T00:33:22;19.20;;;7.03;;
71368;SDS011;59175;53.214;5.728;2022-12-22T00:36:06;13.05;;;4.63;;
71368;SDS011;59175;53.214;5.728;2022-12-22T00:38:52;14.23;;;4.57;;
71368;SDS011;59175;53.214;5.728;2022-12-22T00:41:36;14.10;;;5.55;;
71368;SDS011;59175;53.214;5.728;2022-12-22T00:44:20;19.92;;;5.40;;
71368;SDS011;59175;53.214;5.728;2022-12-22T00:47:04;22.23;;;6.30;;
71368;SDS011;59175;53.214;5.728;2022-12-22T00:49:48;13.40;;;5.13;;
71368;SDS011;59175;53.214;5.728;2022-12-22T00:52:32;14.90;;;4.60;;
71368;SDS011;59175;53.214;5.728;2022-12-22T00:55:19;16.20;;;5.28;;
71368;SDS011;59175;53.214;5.728;2022-12-22T00:58:03;26.73;;;6.00;;
71368;SDS011;59175;53.214;5.728;2022-12-22T01:00:49;22.52;;;5.60;;
71368;SDS011;59175;53.214;5.728;2022-12-22T01:03:33;23.13;;;4.90;;
71368;SDS011;59175;53.214;5.728;2022-12-22T01:06:17;13.63;;;5.10;;
71368;SDS011;59175;53.214;5.728;2022-12-22T01:09:01;15.00;;;4.90;;
71368;SDS011;59175;53.214;5.728;2022-12-22T01:11:45;17.90;;;6.05;;
71368;SDS011;59175;53.214;5.728;2022-12-22T01:14:29;14.75;;;5.78;;
71368;SDS011;59175;53.214;5.728;2022-12-22T01:17:12;19.13;;;4.88;;
71368;SDS011;59175;53.214;5.728;2022-12-22T01:19:56;12.53;;;5.57;;
71368;SDS011;59175;53.214;5.728;2022-12-22T01:22:40;13.32;;;4.90;;
71368;SDS011;59175;53.214;5.728;2022-12-22T01:25:24;17.35;;;6.75;;
71368;SDS011;59175;53.214;5.728;2022-12-22T01:28:15;12.98;;;5.70;;
71368;SDS011;59175;53.214;5.728;2022-12-22T01:31:07;19.77;;;6.97;;
71368;SDS011;59175;53.214;5.728;2022-12-22T01:33:54;15.97;;;5.90;;
71368;SDS011;59175;53.214;5.728;2022-12-22T01:36:37;16.20;;;6.10;;
71368;SDS011;59175;53.214;5.728;2022-12-22T01:39:21;19.25;;;6.60;;
71368;SDS011;59175;53.214;5.728;2022-12-22T01:42:07;16.20;;;6.78;;
71368;SDS011;59175;53.214;5.728;2022-12-22T01:44:53;17.45;;;4.28;;
71368;SDS011;59175;53.214;5.728;2022-12-22T01:47:37;16.27;;;5.97;;
71368;SDS011;59175;53.214;5.728;2022-12-22T01:53:05;16.23;;;6.30;;
71368;SDS011;59175;53.214;5.728;2022-12-22T01:55:50;18.65;;;6.70;;
71368;SDS011;59175;53.214;5.728;2022-12-22T01:58:35;14.38;;;5.50;;
71368;SDS011;59175;53.214;5.728;2022-12-22T02:01:22;14.57;;;5.23;;
71368;SDS011;59175;53.214;5.728;2022-12-22T02:04:06;17.23;;;7.20;;
71368;SDS011;59175;53.214;5.728;2022-12-22T02:06:50;15.93;;;5.38;;
71368;SDS011;59175;53.214;5.728;2022-12-22T02:15:33;16.17;;;5.73;;
71368;SDS011;59175;53.214;5.728;2022-12-22T02:18:22;18.55;;;7.03;;
71368;SDS011;59175;53.214;5.728;2022-12-22T02:21:08;14.43;;;7.20;;
71368;SDS011;59175;53.214;5.728;2022-12-22T02:26:47;13.48;;;4.82;;
71368;SDS011;59175;53.214;5.728;2022-12-22T02:29:34;19.50;;;6.33;;
71368;SDS011;59175;53.214;5.728;2022-12-22T02:32:19;18.17;;;5.13;;
71368;SDS011;59175;53.214;5.728;2022-12-22T02:35:09;13.50;;;4.70;;
71368;SDS011;59175;53.214;5.728;2022-12-22T02:37:56;19.92;;;4.88;;
71368;SDS011;59175;53.214;5.728;2022-12-22T02:46:25;16.42;;;5.90;;
71368;SDS011;59175;53.214;5.728;2022-12-22T02:49:30;16.85;;;6.00;;
71368;SDS011;59175;53.214;5.728;2022-12-22T02:52:16;10.07;;;4.45;;
71368;SDS011;59175;53.214;5.728;2022-12-22T02:55:00;12.05;;;3.83;;
71368;SDS011;59175;53.214;5.728;2022-12-22T02:57:44;17.73;;;4.40;;
71368;SDS011;59175;53.214;5.728;2022-12-22T03:00:28;13.80;;;3.55;;
71368;SDS011;59175;53.214;5.728;2022-12-22T03:03:12;9.38;;;3.45;;
71368;SDS011;59175;53.214;5.728;2022-12-22T03:05:56;8.38;;;3.33;;
71368;SDS011;59175;53.214;5.728;2022-12-22T03:08:40;9.73;;;3.22;;
71368;SDS011;59175;53.214;5.728;2022-12-22T03:11:24;11.07;;;3.33;;
71368;SDS011;59175;53.214;5.728;2022-12-22T03:14:08;9.27;;;2.97;;
71368;SDS011;59175;53.214;5.728;2022-12-22T03:16:52;12.05;;;5.07;;
71368;SDS011;59175;53.214;5.728;2022-12-22T03:19:36;13.27;;;4.13;;
71368;SDS011;59175;53.214;5.728;2022-12-22T03:22:20;11.50;;;4.45;;
71368;SDS011;59175;53.214;5.728;2022-12-22T03:25:04;15.43;;;4.87;;
71368;SDS011;59175;53.214;5.728;2022-12-22T03:27:48;13.20;;;4.85;;
71368;SDS011;59175;53.214;5.728;2022-12-22T03:30:13;21.47;;;6.70;;
71368;SDS011;59175;53.214;5.728;2022-12-22T03:32:38;19.10;;;7.30;;
71368;SDS011;59175;53.214;5.728;2022-12-22T03:35:03;11.33;;;4.73;;
71368;SDS011;59175;53.214;5.728;2022-12-22T03:37:29;13.83;;;6.20;;
71368;SDS011;59175;53.214;5.728;2022-12-22T03:39:54;19.00;;;7.40;;
71368;SDS011;59175;53.214;5.728;2022-12-22T03:42:19;15.43;;;6.27;;
71368;SDS011;59175;53.214;5.728;2022-12-22T03:45:03;19.67;;;4.78;;
71368;SDS011;59175;53.214;5.728;2022-12-22T03:47:47;13.75;;;6.13;;
71368;SDS011;59175;53.214;5.728;2022-12-22T03:50:12;18.63;;;6.43;;
71368;SDS011;59175;53.214;5.728;2022-12-22T03:52:37;12.90;;;5.43;;
71368;SDS011;59175;53.214;5.728;2022-12-22T03:55:03;23.03;;;6.63;;
71368;SDS011;59175;53.214;5.728;2022-12-22T03:57:28;26.47;;;7.23;;
71368;SDS011;59175;53.214;5.728;2022-12-22T03:59:53;18.70;;;5.90;;
71368;SDS011;59175;53.214;5.728;2022-12-22T04:02:19;17.90;;;5.90;;
71368;SDS011;59175;53.214;5.728;2022-12-22T04:04:44;13.87;;;5.20;;
71368;SDS011;59175;53.214;5.728;2022-12-22T04:07:09;10.37;;;5.07;;
71368;SDS011;59175;53.214;5.728;2022-12-22T04:09:34;11.87;;;4.03;;
71368;SDS011;59175;53.214;5.728;2022-12-22T04:11:59;12.90;;;5.73;;
71368;SDS011;59175;53.214;5.728;2022-12-22T04:14:43;15.02;;;5.60;;
71368;SDS011;59175;53.214;5.728;2022-12-22T04:17:08;16.40;;;4.63;;
71368;SDS011;59175;53.214;5.728;2022-12-22T04:19:33;21.23;;;5.80;;
71368;SDS011;59175;53.214;5.728;2022-12-22T04:21:59;19.27;;;5.53;;
71368;SDS011;59175;53.214;5.728;2022-12-22T04:24:24;15.73;;;4.73;;
71368;SDS011;59175;53.214;5.728;2022-12-22T04:26:50;14.40;;;5.43;;
71368;SDS011;59175;53.214;5.728;2022-12-22T04:29:15;18.23;;;5.37;;
71368;SDS011;59175;53.214;5.728;2022-12-22T04:31:40;15.57;;;6.78;;
71368;SDS011;59175;53.214;5.728;2022-12-22T04:34:05;13.67;;;5.73;;
71368;SDS011;59175;53.214;5.728;2022-12-22T04:36:31;11.03;;;4.03;;
71368;SDS011;59175;53.214;5.728;2022-12-22T04:38:56;12.37;;;4.17;;
71368;SDS011;59175;53.214;5.728;2022-12-22T04:41:21;13.83;;;3.80;;
71368;SDS011;59175;53.214;5.728;2022-12-22T04:43:46;7.60;;;2.30;;
71368;SDS011;59175;53.214;5.728;2022-12-22T04:46:12;14.47;;;2.90;;
71368;SDS011;59175;53.214;5.728;2022-12-22T04:48:37;8.87;;;2.97;;
71368;SDS011;59175;53.214;5.728;2022-12-22T04:51:02;15.13;;;3.83;;
71368;SDS011;59175;53.214;5.728;2022-12-22T04:53:28;7.30;;;2.53;;
71368;SDS011;59175;53.214;5.728;2022-12-22T04:55:54;15.75;;;3.28;;
71368;SDS011;59175;53.214;5.728;2022-12-22T04:58:20;11.83;;;3.20;;
71368;SDS011;59175;53.214;5.728;2022-12-22T05:00:46;8.30;;;2.90;;
71368;SDS011;59175;53.214;5.728;2022-12-22T05:03:11;6.60;;;2.20;;
71368;SDS011;59175;53.214;5.728;2022-12-22T05:05:36;8.63;;;2.97;;
71368;SDS011;59175;53.214;5.728;2022-12-22T05:08:02;12.33;;;4.17;;
71368;SDS011;59175;53.214;5.728;2022-12-22T05:10:28;10.27;;;4.22;;
71368;SDS011;59175;53.214;5.728;2022-12-22T05:12:53;6.87;;;2.13;;
71368;SDS011;59175;53.214;5.728;2022-12-22T05:15:19;6.57;;;2.80;;
71368;SDS011;59175;53.214;5.728;2022-12-22T05:17:44;14.80;;;2.38;;
71368;SDS011;59175;53.214;5.728;2022-12-22T05:20:09;16.20;;;3.10;;
71368;SDS011;59175;53.214;5.728;2022-12-22T05:22:35;8.97;;;3.33;;
71368;SDS011;59175;53.214;5.728;2022-12-22T05:25:00;28.80;;;2.13;;
71368;SDS011;59175;53.214;5.728;2022-12-22T05:27:25;14.20;;;3.30;;
71368;SDS011;59175;53.214;5.728;2022-12-22T05:29:50;11.30;;;3.67;;
71368;SDS011;59175;53.214;5.728;2022-12-22T05:32:15;21.13;;;4.07;;
71368;SDS011;59175;53.214;5.728;2022-12-22T05:34:41;15.60;;;2.87;;
71368;SDS011;59175;53.214;5.728;2022-12-22T05:37:06;16.80;;;3.23;;
71368;SDS011;59175;53.214;5.728;2022-12-22T05:39:31;8.03;;;1.90;;
71368;SDS011;59175;53.214;5.728;2022-12-22T05:41:56;10.87;;;2.43;;
71368;SDS011;59175;53.214;5.728;2022-12-22T05:44:21;15.53;;;2.07;;
71368;SDS011;59175;53.214;5.728;2022-12-22T05:46:49;16.10;;;2.27;;
71368;SDS011;59175;53.214;5.728;2022-12-22T05:49:14;10.93;;;2.37;;
71368;SDS011;59175;53.214;5.728;2022-12-22T05:51:40;5.27;;;1.60;;
71368;SDS011;59175;53.214;5.728;2022-12-22T05:54:05;11.27;;;3.67;;
71368;SDS011;59175;53.214;5.728;2022-12-22T05:56:30;4.40;;;0.87;;
71368;SDS011;59175;53.214;5.728;2022-12-22T05:58:55;3.83;;;1.03;;
71368;SDS011;59175;53.214;5.728;2022-12-22T06:01:20;24.93;;;3.00;;
71368;SDS011;59175;53.214;5.728;2022-12-22T06:03:46;10.00;;;1.10;;
71368;SDS011;59175;53.214;5.728;2022-12-22T06:06:11;6.60;;;1.50;;
71368;SDS011;59175;53.214;5.728;2022-12-22T06:08:36;4.10;;;1.60;;
71368;SDS011;59175;53.214;5.728;2022-12-22T06:11:01;8.65;;;1.85;;
71368;SDS011;59175;53.214;5.728;2022-12-22T06:13:26;3.30;;;1.67;;
71368;SDS011;59175;53.214;5.728;2022-12-22T06:15:52;6.80;;;2.70;;
71368;SDS011;59175;53.214;5.728;2022-12-22T06:18:17;12.85;;;1.50;;
71368;SDS011;59175;53.214;5.728;2022-12-22T06:20:44;30.93;;;2.43;;
71368;SDS011;59175;53.214;5.728;2022-12-22T06:23:09;4.43;;;1.07;;
71368;SDS011;59175;53.214;5.728;2022-12-22T06:25:35;3.70;;;0.97;;
71368;SDS011;59175;53.214;5.728;2022-12-22T06:28:00;4.27;;;1.40;;
71368;SDS011;59175;53.214;5.728;2022-12-22T06:30:25;3.77;;;0.63;;
71368;SDS011;59175;53.214;5.728;2022-12-22T06:32:50;13.77;;;1.17;;
71368;SDS011;59175;53.214;5.728;2022-12-22T06:35:16;1.87;;;0.40;;
71368;SDS011;59175;53.214;5.728;2022-12-22T06:37:41;2.23;;;0.50;;
71368;SDS011;59175;53.214;5.728;2022-12-22T06:40:06;3.47;;;0.77;;
71368;SDS011;59175;53.214;5.728;2022-12-22T06:42:32;12.77;;;1.42;;
71368;SDS011;59175;53.214;5.728;2022-12-22T06:45:15;5.05;;;1.10;;
71368;SDS011;59175;53.214;5.728;2022-12-22T06:47:41;3.03;;;1.10;;
71368;SDS011;59175;53.214;5.728;2022-12-22T06:50:06;11.03;;;1.30;;
71368;SDS011;59175;53.214;5.728;2022-12-22T06:52:31;9.00;;;1.10;;
71368;SDS011;59175;53.214;5.728;2022-12-22T06:54:57;3.03;;;0.53;;
71368;SDS011;59175;53.214;5.728;2022-12-22T06:57:22;2.87;;;0.63;;
71368;SDS011;59175;53.214;5.728;2022-12-22T06:59:47;2.47;;;0.77;;
71368;SDS011;59175;53.214;5.728;2022-12-22T07:02:12;2.53;;;0.80;;
71368;SDS011;59175;53.214;5.728;2022-12-22T07:04:37;4.27;;;0.70;;
71368;SDS011;59175;53.214;5.728;2022-12-22T07:07:03;1.73;;;0.40;;
71368;SDS011;59175;53.214;5.728;2022-12-22T07:09:28;5.50;;;1.20;;
71368;SDS011;59175;53.214;5.728;2022-12-22T07:11:53;2.67;;;0.40;;
71368;SDS011;59175;53.214;5.728;2022-12-22T07:14:19;3.27;;;0.83;;
71368;SDS011;59175;53.214;5.728;2022-12-22T07:16:44;2.37;;;0.77;;
71368;SDS011;59175;53.214;5.728;2022-12-22T07:19:10;4.32;;;1.27;;
71368;SDS011;59175;53.214;5.728;2022-12-22T07:21:36;1.93;;;0.40;;
71368;SDS011;59175;53.214;5.728;2022-12-22T07:24:01;15.80;;;0.67;;
71368;SDS011;59175;53.214;5.728;2022-12-22T07:26:26;3.00;;;0.47;;
71368;SDS011;59175;53.214;5.728;2022-12-22T07:28:51;0.67;;;0.20;;
71368;SDS011;59175;53.214;5.728;2022-12-22T07:31:17;1.83;;;0.60;;
71368;SDS011;59175;53.214;5.728;2022-12-22T07:33:42;1.63;;;0.55;;
71368;SDS011;59175;53.214;5.728;2022-12-22T07:36:12;2.10;;;0.50;;
71368;SDS011;59175;53.214;5.728;2022-12-22T07:38:38;1.33;;;0.45;;
71368;SDS011;59175;53.214;5.728;2022-12-22T07:41:05;0.90;;;0.30;;
71368;SDS011;59175;53.214;5.728;2022-12-22T07:43:53;1.02;;;0.17;;
71368;SDS011;59175;53.214;5.728;2022-12-22T07:46:19;28.88;;;1.30;;
71368;SDS011;59175;53.214;5.728;2022-12-22T07:48:44;1.73;;;0.40;;
71368;SDS011;59175;53.214;5.728;2022-12-22T07:51:30;2.10;;;0.50;;
71368;SDS011;59175;53.214;5.728;2022-12-22T07:53:56;2.88;;;0.32;;
71368;SDS011;59175;53.214;5.728;2022-12-22T07:56:21;0.87;;;0.17;;
71368;SDS011;59175;53.214;5.728;2022-12-22T07:58:46;1.03;;;0.30;;
71368;SDS011;59175;53.214;5.728;2022-12-22T08:01:11;0.83;;;0.20;;
71368;SDS011;59175;53.214;5.728;2022-12-22T08:03:36;10.70;;;0.60;;
71368;SDS011;59175;53.214;5.728;2022-12-22T08:06:05;0.47;;;0.15;;
71368;SDS011;59175;53.214;5.728;2022-12-22T08:08:30;1.90;;;0.20;;
71368;SDS011;59175;53.214;5.728;2022-12-22T08:10:56;5.45;;;1.73;;
71368;SDS011;59175;53.214;5.728;2022-12-22T08:13:25;3.33;;;0.60;;
71368;SDS011;59175;53.214;5.728;2022-12-22T08:15:50;5.17;;;0.60;;
71368;SDS011;59175;53.214;5.728;2022-12-22T08:18:15;3.10;;;0.40;;
71368;SDS011;59175;53.214;5.728;2022-12-22T08:20:46;1.90;;;0.60;;
71368;SDS011;59175;53.214;5.728;2022-12-22T08:23:12;1.05;;;0.20;;
71368;SDS011;59175;53.214;5.728;2022-12-22T08:25:37;1.53;;;0.33;;
71368;SDS011;59175;53.214;5.728;2022-12-22T08:28:04;9.60;;;0.83;;
71368;SDS011;59175;53.214;5.728;2022-12-22T08:30:29;1.67;;;0.63;;
71368;SDS011;59175;53.214;5.728;2022-12-22T08:32:54;2.53;;;0.33;;
71368;SDS011;59175;53.214;5.728;2022-12-22T08:35:19;0.43;;;0.10;;
71368;SDS011;59175;53.214;5.728;2022-12-22T08:37:45;0.97;;;0.23;;
71368;SDS011;59175;53.214;5.728;2022-12-22T08:40:12;3.03;;;1.07;;
71368;SDS011;59175;53.214;5.728;2022-12-22T08:42:38;2.05;;;0.43;;
71368;SDS011;59175;53.214;5.728;2022-12-22T08:45:06;2.70;;;1.10;;
71368;SDS011;59175;53.214;5.728;2022-12-22T08:47:33;2.35;;;0.88;;
71368;SDS011;59175;53.214;5.728;2022-12-22T08:49:58;1.53;;;0.40;;
71368;SDS011;59175;53.214;5.728;2022-12-22T08:52:23;8.97;;;1.30;;
71368;SDS011;59175;53.214;5.728;2022-12-22T08:54:48;3.27;;;1.50;;
71368;SDS011;59175;53.214;5.728;2022-12-22T08:57:14;4.07;;;0.87;;
71368;SDS011;59175;53.214;5.728;2022-12-22T08:59:39;2.17;;;1.63;;
71368;SDS011;59175;53.214;5.728;2022-12-22T09:02:04;1.87;;;0.47;;
71368;SDS011;59175;53.214;5.728;2022-12-22T09:04:30;1.10;;;0.37;;
71368;SDS011;59175;53.214;5.728;2022-12-22T09:06:56;2.03;;;0.40;;
71368;SDS011;59175;53.214;5.728;2022-12-22T09:09:21;1.67;;;0.47;;
71368;SDS011;59175;53.214;5.728;2022-12-22T09:11:46;2.37;;;0.83;;
71368;SDS011;59175;53.214;5.728;2022-12-22T09:14:12;3.43;;;0.80;;
71368;SDS011;59175;53.214;5.728;2022-12-22T09:16:37;2.07;;;0.40;;
71368;SDS011;59175;53.214;5.728;2022-12-22T09:19:03;3.10;;;1.10;;
71368;SDS011;59175;53.214;5.728;2022-12-22T09:21:28;2.13;;;0.70;;
71368;SDS011;59175;53.214;5.728;2022-12-22T09:23:54;2.87;;;0.77;;
71368;SDS011;59175;53.214;5.728;2022-12-22T09:26:21;7.40;;;2.17;;
71368;SDS011;59175;53.214;5.728;2022-12-22T09:28:46;3.05;;;1.00;;
71368;SDS011;59175;53.214;5.728;2022-12-22T09:31:12;2.67;;;0.60;;
71368;SDS011;59175;53.214;5.728;2022-12-22T09:33:37;3.50;;;0.50;;
71368;SDS011;59175;53.214;5.728;2022-12-22T09:36:10;2.37;;;0.70;;
71368;SDS011;59175;53.214;5.728;2022-12-22T09:38:36;8.82;;;1.35;;
71368;SDS011;59175;53.214;5.728;2022-12-22T09:41:18;1.63;;;0.40;;
71368;SDS011;59175;53.214;5.728;2022-12-22T09:43:44;3.53;;;1.02;;
71368;SDS011;59175;53.214;5.728;2022-12-22T09:46:13;4.57;;;0.97;;
71368;SDS011;59175;53.214;5.728;2022-12-22T09:48:39;3.58;;;0.40;;
71368;SDS011;59175;53.214;5.728;2022-12-22T09:51:05;9.07;;;0.40;;
71368;SDS011;59175;53.214;5.728;2022-12-22T09:53:34;1.70;;;0.50;;
71368;SDS011;59175;53.214;5.728;2022-12-22T09:55:59;3.03;;;0.27;;
71368;SDS011;59175;53.214;5.728;2022-12-22T09:58:26;1.47;;;0.30;;
71368;SDS011;59175;53.214;5.728;2022-12-22T10:00:53;0.90;;;0.27;;
71368;SDS011;59175;53.214;5.728;2022-12-22T10:03:26;3.95;;;0.65;;
71368;SDS011;59175;53.214;5.728;2022-12-22T10:05:55;1.52;;;0.60;;
71368;SDS011;59175;53.214;5.728;2022-12-22T10:08:27;19.20;;;0.80;;
71368;SDS011;59175;53.214;5.728;2022-12-22T10:10:53;6.47;;;0.88;;
71368;SDS011;59175;53.214;5.728;2022-12-22T10:13:18;1.20;;;0.20;;
71368;SDS011;59175;53.214;5.728;2022-12-22T10:15:44;19.20;;;0.67;;
71368;SDS011;59175;53.214;5.728;2022-12-22T10:18:19;2.17;;;0.40;;
71368;SDS011;59175;53.214;5.728;2022-12-22T10:20:45;3.28;;;0.40;;
71368;SDS011;59175;53.214;5.728;2022-12-22T10:23:23;0.60;;;0.17;;
71368;SDS011;59175;53.214;5.728;2022-12-22T10:28:21;1.35;;;0.40;;
71368;SDS011;59175;53.214;5.728;2022-12-22T10:30:47;5.80;;;0.30;;
71368;SDS011;59175;53.214;5.728;2022-12-22T10:33:13;2.53;;;0.47;;
71368;SDS011;59175;53.214;5.728;2022-12-22T10:35:44;2.30;;;0.90;;
71368;SDS011;59175;53.214;5.728;2022-12-22T10:38:51;3.65;;;0.93;;
71368;SDS011;59175;53.214;5.728;2022-12-22T10:41:23;2.40;;;1.58;;
71368;SDS011;59175;53.214;5.728;2022-12-22T10:43:51;5.10;;;0.20;;
71368;SDS011;59175;53.214;5.728;2022-12-22T10:46:17;1.80;;;0.53;;
71368;SDS011;59175;53.214;5.728;2022-12-22T10:48:42;0.80;;;0.10;;
71368;SDS011;59175;53.214;5.728;2022-12-22T10:51:09;9.00;;;0.67;;
71368;SDS011;59175;53.214;5.728;2022-12-22T10:56:20;1.05;;;0.17;;
71368;SDS011;59175;53.214;5.728;2022-12-22T10:58:46;5.00;;;0.30;;
71368;SDS011;59175;53.214;5.728;2022-12-22T11:01:12;2.80;;;0.57;;
71368;SDS011;59175;53.214;5.728;2022-12-22T11:03:37;4.50;;;1.63;;
71368;SDS011;59175;53.214;5.728;2022-12-22T11:06:07;3.17;;;1.37;;
71368;SDS011;59175;53.214;5.728;2022-12-22T11:08:35;0.85;;;0.28;;
71368;SDS011;59175;53.214;5.728;2022-12-22T11:11:09;1.90;;;0.57;;
71368;SDS011;59175;53.214;5.728;2022-12-22T11:21:21;5.15;;;0.60;;
71368;SDS011;59175;53.214;5.728;2022-12-22T11:39:48;2.93;;;0.30;;
71368;SDS011;59175;53.214;5.728;2022-12-22T11:42:23;4.28;;;0.68;;
71368;SDS011;59175;53.214;5.728;2022-12-22T11:44:59;2.70;;;0.70;;
71368;SDS011;59175;53.214;5.728;2022-12-22T11:50:03;2.83;;;0.43;;
71368;SDS011;59175;53.214;5.728;2022-12-22T11:55:27;5.30;;;0.73;;
71368;SDS011;59175;53.214;5.728;2022-12-22T11:58:00;0.73;;;0.13;;
71368;SDS011;59175;53.214;5.728;2022-12-22T12:00:30;3.20;;;0.30;;
71368;SDS011;59175;53.214;5.728;2022-12-22T12:08:19;0.93;;;0.30;;
71368;SDS011;59175;53.214;5.728;2022-12-22T12:10:51;5.13;;;0.90;;
71368;SDS011;59175;53.214;5.728;2022-12-22T12:29:24;2.65;;;0.65;;
71368;SDS011;59175;53.214;5.728;2022-12-22T12:34:20;11.75;;;0.75;;
71368;SDS011;59175;53.214;5.728;2022-12-22T12:44:26;6.18;;;0.68;;
71368;SDS011;59175;53.214;5.728;2022-12-22T12:51:57;4.22;;;0.45;;
71368;SDS011;59175;53.214;5.728;2022-12-22T12:56:55;1.60;;;0.50;;
71368;SDS011;59175;53.214;5.728;2022-12-22T13:02:27;10.63;;;0.65;;
71368;SDS011;59175;53.214;5.728;2022-12-22T13:10:19;3.60;;;0.47;;
71368;SDS011;59175;53.214;5.728;2022-12-22T13:12:51;8.23;;;1.07;;
71368;SDS011;59175;53.214;5.728;2022-12-22T13:17:55;2.33;;;0.20;;
71368;SDS011;59175;53.214;5.728;2022-12-22T13:20:27;1.30;;;0.50;;
71368;SDS011;59175;53.214;5.728;2022-12-22T13:22:54;6.45;;;0.65;;
71368;SDS011;59175;53.214;5.728;2022-12-22T13:25:19;1.00;;;0.32;;
71368;SDS011;59175;53.214;5.728;2022-12-22T13:27:45;9.33;;;0.63;;
71368;SDS011;59175;53.214;5.728;2022-12-22T13:30:15;3.60;;;1.45;;
71368;SDS011;59175;53.214;5.728;2022-12-22T13:32:40;7.55;;;0.77;;
71368;SDS011;59175;53.214;5.728;2022-12-22T13:38:01;5.93;;;0.70;;
71368;SDS011;59175;53.214;5.728;2022-12-22T13:40:27;3.47;;;0.60;;
71368;SDS011;59175;53.214;5.728;2022-12-22T13:45:33;1.70;;;0.40;;
71368;SDS011;59175;53.214;5.728;2022-12-22T13:48:00;4.20;;;0.20;;
71368;SDS011;59175;53.214;5.728;2022-12-22T13:50:31;3.63;;;0.65;;
71368;SDS011;59175;53.214;5.728;2022-12-22T13:52:57;1.45;;;0.65;;
71368;SDS011;59175;53.214;5.728;2022-12-22T13:55:25;9.02;;;0.77;;
71368;SDS011;59175;53.214;5.728;2022-12-22T13:57:51;3.05;;;0.28;;
71368;SDS011;59175;53.214;5.728;2022-12-22T14:00:17;6.33;;;0.43;;
71368;SDS011;59175;53.214;5.728;2022-12-22T14:02:43;3.22;;;0.10;;
71368;SDS011;59175;53.214;5.728;2022-12-22T14:05:09;1.08;;;0.38;;
71368;SDS011;59175;53.214;5.728;2022-12-22T14:07:34;1.30;;;0.38;;
71368;SDS011;59175;53.214;5.728;2022-12-22T14:10:00;3.60;;;1.23;;
71368;SDS011;59175;53.214;5.728;2022-12-22T14:12:29;0.70;;;0.30;;
71368;SDS011;59175;53.214;5.728;2022-12-22T14:14:55;5.87;;;0.30;;
71368;SDS011;59175;53.214;5.728;2022-12-22T14:17:33;3.33;;;0.40;;
71368;SDS011;59175;53.214;5.728;2022-12-22T14:20:00;9.57;;;0.43;;
71368;SDS011;59175;53.214;5.728;2022-12-22T14:22:26;2.15;;;0.40;;
71368;SDS011;59175;53.214;5.728;2022-12-22T14:24:57;0.77;;;0.15;;
71368;SDS011;59175;53.214;5.728;2022-12-22T14:27:38;0.73;;;0.17;;
71368;SDS011;59175;53.214;5.728;2022-12-22T14:30:13;1.90;;;0.68;;
71368;SDS011;59175;53.214;5.728;2022-12-22T14:32:40;5.03;;;1.50;;
71368;SDS011;59175;53.214;5.728;2022-12-22T14:35:16;5.28;;;0.30;;
71368;SDS011;59175;53.214;5.728;2022-12-22T14:37:49;1.05;;;0.30;;
71368;SDS011;59175;53.214;5.728;2022-12-22T14:40:30;3.03;;;0.67;;
71368;SDS011;59175;53.214;5.728;2022-12-22T14:42:55;3.35;;;0.93;;
71368;SDS011;59175;53.214;5.728;2022-12-22T14:45:21;5.47;;;0.57;;
71368;SDS011;59175;53.214;5.728;2022-12-22T14:47:47;2.27;;;0.67;;
71368;SDS011;59175;53.214;5.728;2022-12-22T14:50:16;3.10;;;0.43;;
71368;SDS011;59175;53.214;5.728;2022-12-22T14:52:43;1.58;;;0.95;;
71368;SDS011;59175;53.214;5.728;2022-12-22T14:57:51;4.18;;;0.60;;
71368;SDS011;59175;53.214;5.728;2022-12-22T15:00:27;3.30;;;0.70;;
71368;SDS011;59175;53.214;5.728;2022-12-22T15:02:55;3.03;;;0.57;;
71368;SDS011;59175;53.214;5.728;2022-12-22T15:05:31;1.35;;;0.52;;
71368;SDS011;59175;53.214;5.728;2022-12-22T15:08:01;2.17;;;0.43;;
71368;SDS011;59175;53.214;5.728;2022-12-22T15:10:32;12.73;;;3.03;;
71368;SDS011;59175;53.214;5.728;2022-12-22T15:12:58;5.60;;;0.88;;
71368;SDS011;59175;53.214;5.728;2022-12-22T15:15:27;1.27;;;0.20;;
71368;SDS011;59175;53.214;5.728;2022-12-22T15:17:52;4.43;;;0.50;;
71368;SDS011;59175;53.214;5.728;2022-12-22T15:20:18;2.63;;;0.70;;
71368;SDS011;59175;53.214;5.728;2022-12-22T15:22:44;1.17;;;0.28;;
71368;SDS011;59175;53.214;5.728;2022-12-22T15:25:16;2.57;;;0.30;;
71368;SDS011;59175;53.214;5.728;2022-12-22T15:27:42;8.45;;;0.45;;
71368;SDS011;59175;53.214;5.728;2022-12-22T15:30:08;7.43;;;2.77;;
71368;SDS011;59175;53.214;5.728;2022-12-22T15:32:45;7.63;;;2.28;;
71368;SDS011;59175;53.214;5.728;2022-12-22T15:35:14;52.53;;;19.83;;
71368;SDS011;59175;53.214;5.728;2022-12-22T15:37:40;5.45;;;1.60;;
71368;SDS011;59175;53.214;5.728;2022-12-22T15:40:10;6.70;;;2.13;;
71368;SDS011;59175;53.214;5.728;2022-12-22T15:42:36;6.90;;;2.40;;
71368;SDS011;59175;53.214;5.728;2022-12-22T15:45:01;13.73;;;4.53;;
71368;SDS011;59175;53.214;5.728;2022-12-22T15:47:26;9.23;;;3.43;;
71368;SDS011;59175;53.214;5.728;2022-12-22T15:49:52;8.83;;;3.57;;
71368;SDS011;59175;53.214;5.728;2022-12-22T15:52:18;9.70;;;3.85;;
71368;SDS011;59175;53.214;5.728;2022-12-22T15:54:43;7.00;;;2.70;;
71368;SDS011;59175;53.214;5.728;2022-12-22T15:57:09;6.90;;;2.33;;
71368;SDS011;59175;53.214;5.728;2022-12-22T15:59:36;8.88;;;3.50;;
71368;SDS011;59175;53.214;5.728;2022-12-22T16:02:01;9.07;;;2.23;;
71368;SDS011;59175;53.214;5.728;2022-12-22T16:04:26;14.67;;;4.73;;
71368;SDS011;59175;53.214;5.728;2022-12-22T16:06:52;5.90;;;3.07;;
71368;SDS011;59175;53.214;5.728;2022-12-22T16:09:27;5.17;;;1.70;;
71368;SDS011;59175;53.214;5.728;2022-12-22T16:11:56;5.88;;;2.20;;
71368;SDS011;59175;53.214;5.728;2022-12-22T16:14:21;11.67;;;4.33;;
71368;SDS011;59175;53.214;5.728;2022-12-22T16:16:47;11.43;;;2.93;;
71368;SDS011;59175;53.214;5.728;2022-12-22T16:19:16;14.88;;;5.88;;
71368;SDS011;59175;53.214;5.728;2022-12-22T16:21:42;10.55;;;3.15;;
71368;SDS011;59175;53.214;5.728;2022-12-22T16:24:09;16.85;;;5.75;;
71368;SDS011;59175;53.214;5.728;2022-12-22T16:26:37;8.45;;;3.15;;
71368;SDS011;59175;53.214;5.728;2022-12-22T16:29:02;18.53;;;8.27;;
71368;SDS011;59175;53.214;5.728;2022-12-22T16:31:27;7.53;;;3.20;;
71368;SDS011;59175;53.214;5.728;2022-12-22T16:33:53;14.97;;;5.43;;
71368;SDS011;59175;53.214;5.728;2022-12-22T16:36:18;10.00;;;4.10;;
71368;SDS011;59175;53.214;5.728;2022-12-22T16:38:43;10.07;;;3.93;;
71368;SDS011;59175;53.214;5.728;2022-12-22T16:41:22;13.40;;;4.72;;
71368;SDS011;59175;53.214;5.728;2022-12-22T16:43:48;26.08;;;2.58;;
71368;SDS011;59175;53.214;5.728;2022-12-22T16:46:14;11.50;;;3.67;;
71368;SDS011;59175;53.214;5.728;2022-12-22T16:48:47;13.13;;;5.13;;
71368;SDS011;59175;53.214;5.728;2022-12-22T16:51:21;8.73;;;3.13;;
71368;SDS011;59175;53.214;5.728;2022-12-22T16:53:47;10.40;;;4.47;;